East Orleans, MA (02643)

2:37 AM EDT on August 05, 2015 (GMT -0400)
Town Cove | | Change Station
CLOSE
Current Station
Personal Weather Station
Location: Orleans, MA
Elevation: 16 ft
Nearby Weather Stations

Elev 16 ft 41.79 °N, 69.98 °W | Updated 14 minutes ago

Clear
Clear
71.4 °F
Feels Like 71.4 °F
N
0.0
Wind Variable Wind from NW
Gusts 2.0 mph

Today
High -- | Low -- °F
--% Chance of Precip.
Yesterday
High -- | Low -- °F
Precip. -- in
5:37 AM 7:53 PM
Waning Gibbous, 70% visible
Pressure 29.89 in
Visibility 3.0 miles
Clouds Clear
Dew Point 70 °F
Humidity 96%
Rainfall 0.00 in
Snow Depth Not available.
UV 0 out of 12
Pollen 5.70 out of 12
Air Quality Not available.
Flu Activity Not available.
METAR KCQX 050552Z AUTO 00000KT 3SM BR CLR 22/21 A2989 RMK AO2 SLP121 T02170211 10244 20217 51001 $

More Conditions Fewer Conditions

Pressure 29.89 in
Visibility 3.0 miles
Clouds Clear
Dew Point 70 °F
Humidity 96%
Rainfall 0.00 in
Snow Depth Not available.
UV 0 out of 12
Pollen 5.70 out of 12
Air Quality Not available.
Flu Activity Not available.
METAR KCQX 050552Z AUTO 00000KT 3SM BR CLR 22/21 A2989 RMK AO2 SLP121 T02170211 10244 20217 51001 $

More Conditions Fewer Conditions

10-Day Weather Forecast

×

Almanac

Astronomy

Aug. 05, 2015 Rise Set
Actual Time
Civil Twilight
Nautical Twilight
Astronomical Twilight
Moon
Length of Visible Light
Length of Day
Tomorrow will be .
, % of the Moon is Illuminated

Today's Extremes

State Highs State Lows

Community

WunderPhotos

Upload Photos

1,844,105 photos uploaded!

WunderBlogs® & News

Nearby

Air Quality

  Air Quality AQ Index Pollutant
Not available.

Snow Depth

Station Depth Elevation

Earthquake Activity

City Distance Mag. Time & Date
Minimum magnitude displayed is 2.5.

Coastal Water Temperatures

Place Temperature

Stations

Nearby Weather Stations

Station Location Temp. Windchill Dew Point Humidity Wind Precip. Elev Updated Type